createdAt,value
2023-02-24T00:00:28.259Z,3.71
2023-02-24T00:01:32.507Z,3.72
2023-02-24T00:02:36.796Z,3.70
2023-02-24T00:03:40.979Z,3.68
2023-02-24T00:04:45.073Z,3.72
2023-02-24T00:05:49.268Z,3.78
2023-02-24T00:06:53.492Z,3.83
2023-02-24T00:07:57.649Z,3.85
2023-02-24T00:09:01.892Z,3.85
2023-02-24T00:10:06.057Z,3.82
2023-02-24T00:11:10.266Z,3.78
2023-02-24T00:12:14.417Z,3.72
2023-02-24T00:13:24.550Z,3.70
2023-02-24T00:14:27.340Z,3.64
2023-02-24T00:15:31.388Z,3.61
2023-02-24T00:16:35.775Z,3.55
2023-02-24T00:17:39.681Z,3.55
2023-02-24T00:18:44.011Z,3.56
2023-02-24T00:19:48.114Z,3.59
2023-02-24T00:20:52.438Z,3.63
2023-02-24T00:21:56.585Z,3.64
2023-02-24T00:23:00.778Z,3.65
2023-02-24T00:24:05.001Z,3.62
2023-02-24T00:25:09.179Z,3.65
2023-02-24T00:26:13.370Z,3.70
2023-02-24T00:27:17.432Z,3.70
2023-02-24T00:28:21.702Z,3.62
2023-02-24T00:29:25.963Z,3.62
2023-02-24T00:30:30.174Z,3.62
2023-02-24T00:31:34.501Z,3.66
2023-02-24T00:32:38.631Z,3.63
2023-02-24T00:33:42.794Z,3.61
2023-02-24T00:34:47.099Z,3.62
2023-02-24T00:35:51.227Z,3.59
2023-02-24T00:36:55.573Z,3.57
2023-02-24T00:37:59.711Z,3.55
2023-02-24T00:39:03.970Z,3.57
2023-02-24T00:40:08.110Z,3.54
2023-02-24T00:41:12.297Z,3.50
2023-02-24T00:42:16.469Z,3.48
2023-02-24T00:43:20.782Z,3.51
2023-02-24T00:44:24.923Z,3.54
2023-02-24T00:45:29.069Z,3.54
2023-02-24T00:46:33.333Z,3.51
2023-02-24T00:47:37.428Z,3.44
2023-02-24T00:48:41.711Z,3.41
2023-02-24T00:49:45.962Z,3.39
2023-02-24T00:50:50.304Z,3.34
2023-02-24T00:51:54.371Z,3.30
2023-02-24T00:52:58.664Z,3.26
2023-02-24T00:54:02.920Z,3.24
2023-02-24T00:55:07.043Z,3.21
2023-02-24T00:56:11.238Z,3.21
2023-02-24T00:57:15.438Z,3.22
2023-02-24T00:58:19.677Z,3.21
2023-02-24T00:59:24.050Z,3.23
2023-02-24T01:00:28.132Z,3.24
2023-02-24T01:01:32.396Z,3.24
2023-02-24T01:02:36.440Z,3.26
2023-02-24T01:03:40.696Z,3.26
2023-02-24T01:04:44.821Z,3.24
2023-02-24T01:05:49.042Z,3.27
2023-02-24T01:06:53.251Z,3.31
2023-02-24T01:07:57.390Z,3.34
2023-02-24T01:09:01.695Z,3.35
2023-02-24T01:10:05.881Z,3.34
2023-02-24T01:11:10.048Z,3.36
2023-02-24T01:12:14.384Z,3.40
2023-02-24T01:13:18.513Z,3.42
2023-02-24T01:14:22.674Z,3.45
2023-02-24T01:15:26.858Z,3.48
2023-02-24T01:16:31.064Z,3.50
2023-02-24T01:17:35.272Z,3.51
2023-02-24T01:18:39.497Z,3.52
2023-02-24T01:19:43.676Z,3.50
2023-02-24T01:20:47.878Z,3.45
2023-02-24T01:21:52.091Z,3.43
2023-02-24T01:22:56.353Z,3.41
2023-02-24T01:24:00.470Z,3.40
2023-02-24T01:25:04.610Z,3.39
2023-02-24T01:26:08.841Z,3.36
2023-02-24T01:27:13.038Z,3.31
2023-02-24T01:28:17.222Z,3.30
2023-02-24T01:29:21.538Z,3.25
2023-02-24T01:30:25.630Z,3.18
2023-02-24T01:31:29.942Z,3.17
2023-02-24T01:32:34.303Z,3.16
2023-02-24T01:33:38.216Z,3.12
2023-02-24T01:34:42.504Z,3.12
2023-02-24T01:35:52.551Z,3.16
2023-02-24T01:36:55.327Z,3.13
2023-02-24T01:37:59.618Z,3.14
2023-02-24T01:39:03.735Z,3.14
2023-02-24T01:40:08.003Z,3.15
2023-02-24T01:41:12.119Z,3.10
2023-02-24T01:42:16.319Z,3.12
2023-02-24T01:43:20.524Z,3.11
2023-02-24T01:44:24.695Z,3.10
2023-02-24T01:45:29.090Z,3.11
2023-02-24T01:46:33.153Z,3.15
2023-02-24T01:47:40.220Z,3.16
2023-02-24T01:48:43.504Z,3.20
2023-02-24T01:49:47.694Z,3.23
2023-02-24T01:50:51.851Z,3.24
2023-02-24T01:51:55.998Z,3.26
2023-02-24T01:53:00.099Z,3.26
2023-02-24T01:54:04.378Z,3.20
2023-02-24T01:55:08.469Z,3.18
2023-02-24T01:56:12.650Z,3.14
2023-02-24T01:57:16.883Z,3.13
2023-02-24T01:58:21.069Z,3.12
2023-02-24T01:59:25.245Z,3.10
2023-02-24T02:00:29.458Z,3.10
2023-02-24T02:01:33.658Z,3.13
2023-02-24T02:02:37.928Z,3.13
2023-02-24T02:03:42.152Z,3.15
2023-02-24T02:04:46.349Z,3.20
2023-02-24T02:05:50.554Z,3.24
2023-02-24T02:06:54.778Z,3.25
2023-02-24T02:07:58.954Z,3.22
2023-02-24T02:09:03.192Z,3.20
2023-02-24T02:10:07.489Z,3.19
2023-02-24T02:11:11.683Z,3.18
2023-02-24T02:12:15.792Z,3.13
2023-02-24T02:13:20.022Z,3.12
2023-02-24T02:14:24.163Z,3.16
2023-02-24T02:15:28.396Z,3.18
2023-02-24T02:16:32.613Z,3.22
2023-02-24T02:17:36.788Z,3.25
2023-02-24T02:18:40.976Z,3.27
2023-02-24T02:19:45.172Z,3.29
2023-02-24T02:20:49.388Z,3.28
2023-02-24T02:21:53.570Z,3.31
2023-02-24T02:22:57.796Z,3.36
2023-02-24T02:24:02.008Z,3.35
2023-02-24T02:25:06.208Z,3.30
2023-02-24T02:26:10.451Z,3.22
2023-02-24T02:27:14.740Z,3.19
2023-02-24T02:28:18.846Z,3.19
2023-02-24T02:29:23.105Z,3.21
2023-02-24T02:30:27.352Z,3.23
2023-02-24T02:31:31.604Z,3.21
2023-02-24T02:32:35.831Z,3.20
2023-02-24T02:33:39.844Z,3.11
2023-02-24T02:34:44.046Z,3.08
2023-02-24T02:35:48.128Z,2.99
2023-02-24T02:36:52.359Z,2.92
2023-02-24T02:37:56.569Z,2.90
2023-02-24T02:39:00.752Z,2.87
2023-02-24T02:40:19.015Z,2.90
2023-02-24T02:41:22.448Z,2.92
2023-02-24T02:42:26.291Z,2.91
2023-02-24T02:43:30.552Z,2.92
2023-02-24T02:44:34.679Z,2.91
2023-02-24T02:45:38.913Z,2.89
2023-02-24T02:46:43.131Z,2.92
2023-02-24T02:47:47.321Z,2.99
2023-02-24T02:48:51.577Z,3.04
2023-02-24T02:49:55.792Z,3.10
2023-02-24T02:50:59.966Z,3.13
2023-02-24T02:52:04.255Z,3.19
2023-02-24T02:53:08.437Z,3.23
2023-02-24T02:54:15.636Z,3.21
2023-02-24T02:55:18.926Z,3.23
2023-02-24T02:56:23.079Z,3.25
2023-02-24T02:57:27.328Z,3.25
2023-02-24T02:58:31.470Z,3.28
2023-02-24T02:59:35.788Z,3.32
2023-02-24T03:00:40.051Z,3.33
2023-02-24T03:01:44.204Z,3.34
2023-02-24T03:02:48.461Z,3.36
2023-02-24T03:03:52.627Z,3.39
2023-02-24T03:04:56.907Z,3.44
2023-02-24T03:06:01.950Z,3.42
2023-02-24T03:07:05.831Z,3.39
2023-02-24T03:08:09.875Z,3.37
2023-02-24T03:09:14.116Z,3.38
2023-02-24T03:10:18.274Z,3.40
2023-02-24T03:11:22.706Z,3.41
2023-02-24T03:12:26.740Z,3.41
2023-02-24T03:13:30.960Z,3.42
2023-02-24T03:14:35.063Z,3.44
2023-02-24T03:15:39.321Z,3.46
2023-02-24T03:16:43.612Z,3.48
2023-02-24T03:17:47.870Z,3.48
2023-02-24T03:18:52.025Z,3.40
2023-02-24T03:19:56.231Z,3.38
2023-02-24T03:21:00.437Z,3.31
2023-02-24T03:22:04.664Z,3.25
2023-02-24T03:23:08.862Z,3.27
2023-02-24T03:24:13.080Z,3.28
2023-02-24T03:25:17.260Z,3.32
2023-02-24T03:26:21.440Z,3.35
2023-02-24T03:27:25.628Z,3.35
2023-02-24T03:28:29.817Z,3.32
2023-02-24T03:29:34.044Z,3.23
2023-02-24T03:30:38.295Z,3.22
2023-02-24T03:31:42.474Z,3.22
2023-02-24T03:32:46.693Z,3.23
2023-02-24T03:33:50.743Z,3.21
2023-02-24T03:34:54.945Z,3.19
2023-02-24T03:35:59.234Z,3.17
2023-02-24T03:37:03.312Z,3.18
2023-02-24T03:38:07.595Z,3.16
2023-02-24T03:39:11.773Z,3.15
2023-02-24T03:40:15.982Z,3.15
2023-02-24T03:41:20.489Z,3.17
2023-02-24T03:42:24.469Z,3.20
2023-02-24T03:43:28.713Z,3.24
2023-02-24T03:44:32.879Z,3.19
2023-02-24T03:45:37.129Z,3.20
2023-02-24T03:46:41.216Z,3.18
2023-02-24T03:47:45.522Z,3.18
2023-02-24T03:48:49.759Z,3.19
2023-02-24T03:49:53.964Z,3.19
2023-02-24T03:50:58.120Z,3.16
2023-02-24T03:52:02.246Z,3.18
2023-02-24T03:53:06.532Z,3.20
2023-02-24T03:54:10.688Z,3.18
2023-02-24T03:55:14.976Z,3.17
2023-02-24T03:56:19.137Z,3.20
2023-02-24T03:57:23.456Z,3.21
2023-02-24T03:58:27.580Z,3.23
2023-02-24T03:59:31.811Z,3.26
2023-02-24T04:00:39.090Z,3.27
2023-02-24T04:01:42.319Z,3.28
2023-02-24T04:02:46.453Z,3.31
2023-02-24T04:03:50.697Z,3.34
2023-02-24T04:04:54.818Z,3.34
2023-02-24T04:05:59.029Z,3.36
2023-02-24T04:07:03.218Z,3.39
2023-02-24T04:08:07.502Z,3.40
2023-02-24T04:09:11.678Z,3.43
2023-02-24T04:10:15.762Z,3.45
2023-02-24T04:11:20.404Z,3.46
2023-02-24T04:12:24.224Z,3.48
2023-02-24T04:13:29.285Z,3.51
2023-02-24T04:14:33.090Z,3.53
2023-02-24T04:15:37.373Z,3.55
2023-02-24T04:16:41.510Z,3.56
2023-02-24T04:17:45.732Z,3.56
2023-02-24T04:18:49.899Z,3.57
2023-02-24T04:19:53.998Z,3.55
2023-02-24T04:20:58.372Z,3.56
2023-02-24T04:22:02.544Z,3.55
2023-02-24T04:23:06.756Z,3.54
2023-02-24T04:24:10.977Z,3.54
2023-02-24T04:25:15.203Z,3.55
2023-02-24T04:26:19.349Z,3.57
2023-02-24T04:27:23.552Z,3.58
2023-02-24T04:28:27.786Z,3.58
2023-02-24T04:29:32.062Z,3.59
2023-02-24T04:30:36.238Z,3.60
2023-02-24T04:31:40.667Z,3.60
2023-02-24T04:32:44.595Z,3.59
2023-02-24T04:33:48.890Z,3.57
2023-02-24T04:34:52.933Z,3.58
2023-02-24T04:35:57.185Z,3.56
2023-02-24T04:37:01.394Z,3.55
2023-02-24T04:38:05.705Z,3.53
2023-02-24T04:39:09.740Z,3.54
2023-02-24T04:40:14.008Z,3.55
2023-02-24T04:41:18.680Z,3.56
2023-02-24T04:42:22.399Z,3.56
2023-02-24T04:43:26.525Z,3.56
2023-02-24T04:44:30.662Z,3.54
2023-02-24T04:45:34.773Z,3.52
2023-02-24T04:46:39.001Z,3.52
2023-02-24T04:47:43.140Z,3.53
2023-02-24T04:48:47.391Z,3.51
2023-02-24T04:49:51.577Z,3.50
2023-02-24T04:50:55.716Z,3.51
2023-02-24T04:51:59.833Z,3.54
2023-02-24T04:53:04.099Z,3.56
2023-02-24T04:54:08.168Z,3.58
2023-02-24T04:55:12.447Z,3.60
2023-02-24T04:56:16.768Z,3.62
2023-02-24T04:57:20.924Z,3.64
2023-02-24T04:58:25.089Z,3.66
2023-02-24T04:59:29.175Z,3.66
2023-02-24T05:00:33.513Z,3.65
2023-02-24T05:01:37.654Z,3.64
2023-02-24T05:02:41.844Z,3.64
2023-02-24T05:03:46.103Z,3.63
2023-02-24T05:04:56.428Z,3.64
2023-02-24T05:05:58.998Z,3.63
2023-02-24T05:07:06.296Z,3.62
2023-02-24T05:08:09.420Z,3.62
2023-02-24T05:09:13.708Z,3.62
2023-02-24T05:10:17.981Z,3.60
2023-02-24T05:11:22.426Z,3.57
2023-02-24T05:12:26.310Z,3.57
2023-02-24T05:13:30.482Z,3.56
2023-02-24T05:14:34.726Z,3.56
2023-02-24T05:15:38.995Z,3.54
2023-02-24T05:16:43.193Z,3.55
2023-02-24T05:17:47.368Z,3.57
2023-02-24T05:18:51.538Z,3.58
2023-02-24T05:19:55.735Z,3.58
2023-02-24T05:21:01.793Z,3.58
2023-02-24T05:22:04.102Z,3.59
2023-02-24T05:23:08.328Z,3.59
2023-02-24T05:24:12.507Z,3.59
2023-02-24T05:25:16.782Z,3.60
2023-02-24T05:26:20.807Z,3.59
2023-02-24T05:27:25.138Z,3.60
2023-02-24T05:28:29.259Z,3.60
2023-02-24T05:29:33.424Z,3.59
2023-02-24T05:30:37.707Z,3.59
2023-02-24T05:31:41.967Z,3.60
2023-02-24T05:32:46.047Z,3.60
2023-02-24T05:33:50.170Z,3.62
2023-02-24T05:34:54.435Z,3.62
2023-02-24T05:35:58.546Z,3.62
2023-02-24T05:37:02.680Z,3.62
2023-02-24T05:38:06.900Z,3.63
2023-02-24T05:39:11.178Z,3.63
2023-02-24T05:40:15.343Z,3.64
2023-02-24T05:41:19.961Z,3.65
2023-02-24T05:42:23.656Z,3.65
2023-02-24T05:43:27.841Z,3.66
2023-02-24T05:44:32.045Z,3.66
2023-02-24T05:45:36.340Z,3.68
2023-02-24T05:46:40.493Z,3.68
2023-02-24T05:47:44.619Z,3.68
2023-02-24T05:48:48.729Z,3.68
2023-02-24T05:49:52.959Z,3.68
2023-02-24T05:50:57.148Z,3.69
2023-02-24T05:52:01.221Z,3.69
2023-02-24T05:53:05.458Z,3.70
2023-02-24T05:54:09.630Z,3.69
2023-02-24T05:55:13.892Z,3.70
2023-02-24T05:56:18.013Z,3.70
2023-02-24T05:57:22.228Z,3.70
2023-02-24T05:58:26.304Z,3.70
2023-02-24T05:59:33.778Z,3.70
2023-02-24T06:00:37.155Z,3.70
2023-02-24T06:01:41.301Z,3.71
2023-02-24T06:02:46.316Z,3.71
2023-02-24T06:03:50.144Z,3.70
2023-02-24T06:04:54.368Z,3.69
2023-02-24T06:05:58.475Z,3.69
2023-02-24T06:07:02.570Z,3.68
2023-02-24T06:08:06.809Z,3.68
2023-02-24T06:09:11.113Z,3.65
2023-02-24T06:10:15.158Z,3.63
2023-02-24T06:11:19.754Z,3.61
2023-02-24T06:12:23.533Z,3.61
2023-02-24T06:13:30.760Z,3.62
2023-02-24T06:14:34.118Z,3.60
2023-02-24T06:15:38.329Z,3.61
2023-02-24T06:16:42.445Z,3.61
2023-02-24T06:17:46.660Z,3.61
2023-02-24T06:18:50.741Z,3.64
2023-02-24T06:19:54.984Z,3.66
2023-02-24T06:20:59.273Z,3.66
2023-02-24T06:22:03.393Z,3.66
2023-02-24T06:23:07.582Z,3.66
2023-02-24T06:24:11.797Z,3.65
2023-02-24T06:25:16.024Z,3.65
2023-02-24T06:26:20.187Z,3.64
2023-02-24T06:27:24.748Z,3.65
2023-02-24T06:28:28.616Z,3.65
2023-02-24T06:29:33.013Z,3.67
2023-02-24T06:30:37.161Z,3.66
2023-02-24T06:31:55.498Z,3.66
2023-02-24T06:32:58.344Z,3.67
2023-02-24T06:34:02.329Z,3.70
2023-02-24T06:35:06.536Z,3.71
2023-02-24T06:36:10.689Z,3.73
2023-02-24T06:37:14.901Z,3.75
2023-02-24T06:38:18.962Z,3.78
2023-02-24T06:39:23.280Z,3.78
2023-02-24T06:40:27.440Z,3.79
2023-02-24T06:41:31.547Z,3.79
2023-02-24T06:42:35.763Z,3.79
2023-02-24T06:43:40.019Z,3.81
2023-02-24T06:44:44.190Z,3.80
2023-02-24T06:45:48.432Z,3.79
2023-02-24T06:46:52.563Z,3.81
2023-02-24T06:47:56.817Z,3.81
2023-02-24T06:49:00.984Z,3.82
2023-02-24T06:50:05.164Z,3.81
2023-02-24T06:51:09.351Z,3.82
2023-02-24T06:52:13.541Z,3.82
2023-02-24T06:53:17.829Z,3.82
2023-02-24T06:54:21.993Z,3.83
2023-02-24T06:55:26.177Z,3.84
2023-02-24T06:56:32.419Z,3.84
2023-02-24T06:57:34.516Z,3.84
2023-02-24T06:58:38.776Z,3.84
2023-02-24T06:59:42.982Z,3.83
2023-02-24T07:00:47.195Z,3.83
2023-02-24T07:01:51.442Z,3.83
2023-02-24T07:02:55.621Z,3.84
2023-02-24T07:03:59.863Z,3.84
2023-02-24T07:05:03.996Z,3.84
2023-02-24T07:06:08.326Z,3.83
2023-02-24T07:07:12.366Z,3.83
2023-02-24T07:08:16.530Z,3.83
2023-02-24T07:09:20.831Z,3.84
2023-02-24T07:10:25.017Z,3.84
2023-02-24T07:11:29.224Z,3.84
2023-02-24T07:12:47.518Z,3.82
2023-02-24T07:13:50.386Z,3.82
2023-02-24T07:14:54.548Z,3.81
2023-02-24T07:15:58.762Z,3.81
2023-02-24T07:17:02.977Z,3.82
2023-02-24T07:18:07.076Z,3.82
2023-02-24T07:19:17.304Z,3.83
2023-02-24T07:20:20.224Z,3.82
2023-02-24T07:21:24.276Z,3.81
2023-02-24T07:22:28.363Z,3.80
2023-02-24T07:23:32.623Z,3.80
2023-02-24T07:24:37.083Z,3.79
2023-02-24T07:25:40.922Z,3.76
2023-02-24T07:26:45.032Z,3.76
2023-02-24T07:27:49.264Z,3.75
2023-02-24T07:28:53.493Z,3.75
2023-02-24T07:29:57.655Z,3.75
2023-02-24T07:31:01.955Z,3.75
2023-02-24T07:32:06.290Z,3.74
2023-02-24T07:33:10.073Z,3.74
2023-02-24T07:34:14.290Z,3.74
2023-02-24T07:35:18.443Z,3.76
2023-02-24T07:36:22.629Z,3.76
2023-02-24T07:37:41.001Z,3.78
2023-02-24T07:38:50.254Z,3.77
2023-02-24T07:39:53.136Z,3.77
2023-02-24T07:40:57.197Z,3.76
2023-02-24T07:42:01.417Z,3.77
2023-02-24T07:43:05.650Z,3.77
2023-02-24T07:44:09.843Z,3.77
2023-02-24T07:45:14.049Z,3.79
2023-02-24T07:46:18.178Z,3.81
2023-02-24T07:47:22.314Z,3.82
2023-02-24T07:48:26.607Z,3.83
2023-02-24T07:49:30.655Z,3.82
2023-02-24T07:50:34.786Z,3.83
2023-02-24T07:51:39.068Z,3.83
2023-02-24T07:52:43.380Z,3.83
2023-02-24T07:53:47.408Z,3.82
2023-02-24T07:54:51.654Z,3.81
2023-02-24T07:55:55.869Z,3.81
2023-02-24T07:57:00.153Z,3.80
2023-02-24T07:58:04.281Z,3.79
2023-02-24T07:59:08.503Z,3.79
2023-02-24T08:00:14.573Z,3.79
2023-02-24T08:01:16.812Z,3.80
2023-02-24T08:02:21.222Z,3.78
2023-02-24T08:03:25.294Z,3.77
2023-02-24T08:04:29.584Z,3.76
2023-02-24T08:05:33.765Z,3.76
2023-02-24T08:06:38.022Z,3.77
2023-02-24T08:07:42.285Z,3.75
2023-02-24T08:08:46.397Z,3.72
2023-02-24T08:09:50.727Z,3.71
2023-02-24T08:10:54.889Z,3.70
2023-02-24T08:11:59.136Z,3.69
2023-02-24T08:13:03.339Z,3.68
2023-02-24T08:14:07.503Z,3.66
2023-02-24T08:15:11.738Z,3.64
2023-02-24T08:16:16.065Z,3.64
2023-02-24T08:17:20.204Z,3.63
2023-02-24T08:18:24.363Z,3.61
2023-02-24T08:19:28.517Z,3.59
2023-02-24T08:20:32.698Z,3.58
2023-02-24T08:21:36.867Z,3.58
2023-02-24T08:22:41.069Z,3.56
2023-02-24T08:23:45.289Z,3.55
2023-02-24T08:24:49.436Z,3.54
2023-02-24T08:25:53.692Z,3.52
2023-02-24T08:26:57.800Z,3.51
2023-02-24T08:28:07.871Z,3.49
2023-02-24T08:29:06.201Z,3.47
2023-02-24T08:30:10.378Z,3.46
2023-02-24T08:31:14.805Z,3.46
2023-02-24T08:32:20.752Z,3.44
2023-02-24T08:33:23.246Z,3.44
2023-02-24T08:34:27.285Z,3.43
2023-02-24T08:35:31.452Z,3.42
2023-02-24T08:36:35.594Z,3.41
2023-02-24T08:37:39.964Z,3.39
2023-02-24T08:38:43.974Z,3.37
2023-02-24T08:39:48.135Z,3.36
2023-02-24T08:40:52.368Z,3.34
2023-02-24T08:41:56.473Z,3.32
2023-02-24T08:43:00.685Z,3.31
2023-02-24T08:44:04.852Z,3.28
2023-02-24T08:45:09.054Z,3.27
2023-02-24T08:46:13.853Z,3.25
2023-02-24T08:47:17.577Z,3.22
2023-02-24T08:48:21.708Z,3.21
2023-02-24T08:49:25.939Z,3.20
2023-02-24T08:50:30.065Z,3.18
2023-02-24T08:51:34.230Z,3.19
2023-02-24T08:52:38.421Z,3.17
2023-02-24T08:53:42.580Z,3.17
2023-02-24T08:54:46.747Z,3.16
2023-02-24T08:55:50.833Z,3.14
2023-02-24T08:56:55.079Z,3.14
2023-02-24T08:57:59.430Z,3.13
2023-02-24T08:59:03.419Z,3.12
2023-02-24T09:00:07.703Z,3.11
2023-02-24T09:01:26.156Z,3.13
2023-02-24T09:02:29.043Z,3.12
2023-02-24T09:03:33.124Z,3.13
2023-02-24T09:04:37.310Z,3.12
2023-02-24T09:05:41.397Z,3.13
2023-02-24T09:06:45.591Z,3.12
2023-02-24T09:07:50.645Z,3.12
2023-02-24T09:08:54.351Z,3.11
2023-02-24T09:09:58.586Z,3.12
2023-02-24T09:11:02.706Z,3.14
2023-02-24T09:12:06.918Z,3.15
2023-02-24T09:13:11.000Z,3.16
2023-02-24T09:14:25.999Z,3.16
2023-02-24T09:15:19.483Z,3.17
2023-02-24T09:16:23.825Z,3.19
2023-02-24T09:17:30.007Z,3.19
2023-02-24T09:18:32.021Z,3.20
2023-02-24T09:19:36.765Z,3.20
2023-02-24T09:20:40.441Z,3.20
2023-02-24T09:21:44.627Z,3.20
2023-02-24T09:22:48.799Z,3.22
2023-02-24T09:23:52.877Z,3.23
2023-02-24T09:24:57.076Z,3.24
2023-02-24T09:26:01.250Z,3.23
2023-02-24T09:27:05.458Z,3.23
2023-02-24T09:28:09.634Z,3.23
2023-02-24T09:29:13.803Z,3.24
2023-02-24T09:30:17.915Z,3.24
2023-02-24T09:31:22.646Z,3.24
2023-02-24T09:32:26.403Z,3.24
2023-02-24T09:33:30.501Z,3.24
2023-02-24T09:34:34.737Z,3.23
2023-02-24T09:35:38.942Z,3.23
2023-02-24T09:36:43.075Z,3.22
2023-02-24T09:37:47.223Z,3.22
2023-02-24T09:38:51.324Z,3.21
2023-02-24T09:39:55.554Z,3.21
2023-02-24T09:41:02.811Z,3.21
2023-02-24T09:42:03.871Z,3.21
2023-02-24T09:43:08.119Z,3.22
2023-02-24T09:44:12.212Z,3.22
2023-02-24T09:45:16.358Z,3.22
2023-02-24T09:46:20.758Z,3.21
2023-02-24T09:47:24.686Z,3.21
2023-02-24T09:48:28.881Z,3.22
2023-02-24T09:49:33.047Z,3.22
2023-02-24T09:51:01.065Z,3.21
2023-02-24T09:51:41.473Z,3.21
2023-02-24T09:52:45.543Z,3.22
2023-02-24T09:53:49.764Z,3.23
2023-02-24T09:54:53.926Z,3.24
2023-02-24T09:55:58.062Z,3.25
2023-02-24T09:57:02.368Z,3.25
2023-02-24T09:58:06.462Z,3.27
2023-02-24T09:59:10.655Z,3.28
2023-02-24T10:00:14.797Z,3.29
2023-02-24T10:01:19.415Z,3.32
2023-02-24T10:02:23.094Z,3.34
2023-02-24T10:03:27.246Z,3.34
2023-02-24T10:04:31.298Z,3.37
2023-02-24T10:05:35.635Z,3.38
2023-02-24T10:06:39.771Z,3.39
2023-02-24T10:07:44.049Z,3.41
2023-02-24T10:08:48.150Z,3.42
2023-02-24T10:09:52.238Z,3.43
2023-02-24T10:10:56.444Z,3.45
2023-02-24T10:12:00.588Z,3.47
2023-02-24T10:13:04.776Z,3.50
2023-02-24T10:14:08.940Z,3.52
2023-02-24T10:15:13.157Z,3.54
2023-02-24T10:16:17.344Z,3.55
2023-02-24T10:17:22.703Z,3.57
2023-02-24T10:18:25.613Z,3.59
2023-02-24T10:19:29.767Z,3.60
2023-02-24T10:20:33.938Z,3.62
2023-02-24T10:21:38.091Z,3.62
2023-02-24T10:22:42.238Z,3.63
2023-02-24T10:23:46.551Z,3.63
2023-02-24T10:24:50.727Z,3.64
2023-02-24T10:25:54.954Z,3.66
2023-02-24T10:27:01.273Z,3.66
2023-02-24T10:28:03.287Z,3.66
2023-02-24T10:29:07.425Z,3.68
2023-02-24T10:30:11.742Z,3.68
2023-02-24T10:31:15.941Z,3.68
2023-02-24T10:32:20.127Z,3.70
2023-02-24T10:33:24.176Z,3.71
2023-02-24T10:34:28.342Z,3.72
2023-02-24T10:35:32.523Z,3.73
2023-02-24T10:36:36.817Z,3.74
2023-02-24T10:37:40.924Z,3.75
2023-02-24T10:38:45.079Z,3.77
2023-02-24T10:39:51.826Z,3.77
2023-02-24T10:40:53.484Z,3.79
2023-02-24T10:41:57.972Z,3.81
2023-02-24T10:43:01.820Z,3.83
2023-02-24T10:44:06.070Z,3.84
2023-02-24T10:45:10.171Z,3.85
2023-02-24T10:46:14.406Z,3.86
2023-02-24T10:47:18.552Z,3.87
2023-02-24T10:48:32.349Z,3.88
2023-02-24T10:49:26.880Z,3.89
2023-02-24T10:50:32.474Z,3.90
2023-02-24T10:51:35.243Z,3.92
2023-02-24T10:52:39.410Z,3.94
2023-02-24T10:53:46.069Z,3.96
2023-02-24T10:54:53.823Z,3.97
2023-02-24T10:55:56.554Z,4.01
2023-02-24T10:57:00.662Z,4.03
2023-02-24T10:58:04.802Z,4.06
2023-02-24T10:59:09.091Z,4.09
2023-02-24T11:00:13.244Z,4.12
2023-02-24T11:01:23.791Z,4.13
2023-02-24T11:02:26.173Z,4.14
2023-02-24T11:03:32.980Z,4.16
2023-02-24T11:04:34.519Z,4.17
2023-02-24T11:05:38.762Z,4.17
2023-02-24T11:06:42.910Z,4.18
2023-02-24T11:07:47.110Z,4.19
2023-02-24T11:08:51.253Z,4.21
2023-02-24T11:09:55.489Z,4.22
2023-02-24T11:10:59.697Z,4.25
2023-02-24T11:12:03.833Z,4.28
2023-02-24T11:13:10.291Z,4.29
2023-02-24T11:14:12.212Z,4.31
2023-02-24T11:15:16.403Z,4.31
2023-02-24T11:16:20.707Z,4.33
2023-02-24T11:17:24.777Z,4.34
2023-02-24T11:18:28.970Z,4.35
2023-02-24T11:19:33.132Z,4.37
2023-02-24T11:20:48.383Z,4.38
2023-02-24T11:21:42.808Z,4.39
2023-02-24T11:22:45.695Z,4.42
2023-02-24T11:23:49.830Z,4.45
2023-02-24T11:24:54.042Z,4.48
2023-02-24T11:25:58.230Z,4.52
2023-02-24T11:27:04.331Z,4.56
2023-02-24T11:28:12.527Z,4.59
2023-02-24T11:29:15.300Z,4.62
2023-02-24T11:30:19.508Z,4.64
2023-02-24T11:31:24.136Z,4.65
2023-02-24T11:32:27.955Z,4.66
2023-02-24T11:33:32.008Z,4.68
2023-02-24T11:34:36.220Z,4.71
2023-02-24T11:35:40.390Z,4.74
2023-02-24T11:36:44.570Z,4.76
2023-02-24T11:37:48.770Z,4.79
2023-02-24T11:38:52.978Z,4.82
2023-02-24T11:39:57.269Z,4.85
2023-02-24T11:41:15.423Z,4.88
2023-02-24T11:42:18.495Z,4.91
2023-02-24T11:43:22.626Z,4.93
2023-02-24T11:44:26.827Z,4.94
2023-02-24T11:45:31.093Z,4.96
2023-02-24T11:46:35.299Z,4.97
2023-02-24T11:47:39.432Z,4.98
2023-02-24T11:48:43.672Z,4.99
2023-02-24T11:49:47.741Z,5.00
2023-02-24T11:50:52.060Z,5.02
2023-02-24T11:51:56.272Z,5.04
2023-02-24T11:53:00.441Z,5.05
2023-02-24T11:54:04.599Z,5.05
2023-02-24T11:55:08.827Z,5.05
2023-02-24T11:56:12.998Z,5.04
2023-02-24T11:57:17.175Z,5.03
2023-02-24T11:58:21.509Z,5.01
2023-02-24T11:59:25.658Z,5.00
2023-02-24T12:00:29.837Z,4.98
2023-02-24T12:01:34.036Z,4.97
2023-02-24T12:02:38.218Z,4.98
2023-02-24T12:03:42.355Z,4.96
2023-02-24T12:04:46.584Z,4.95
2023-02-24T12:05:50.843Z,4.94
2023-02-24T12:06:54.946Z,4.94
2023-02-24T12:07:59.248Z,4.95
2023-02-24T12:09:03.360Z,4.96
2023-02-24T12:10:16.707Z,4.96
2023-02-24T12:11:11.759Z,4.97
2023-02-24T12:12:16.053Z,4.98
2023-02-24T12:13:20.170Z,4.98
2023-02-24T12:14:24.371Z,4.99
2023-02-24T12:15:28.501Z,5.00
2023-02-24T12:16:32.706Z,5.01
2023-02-24T12:17:36.892Z,5.03
2023-02-24T12:18:41.041Z,5.04
2023-02-24T12:19:45.234Z,5.06
2023-02-24T12:20:49.520Z,5.07
2023-02-24T12:21:53.703Z,5.09
2023-02-24T12:22:58.017Z,5.11
2023-02-24T12:24:02.206Z,5.13
2023-02-24T12:25:06.398Z,5.15
2023-02-24T12:26:10.586Z,5.17
2023-02-24T12:27:14.771Z,5.18
2023-02-24T12:28:19.025Z,5.17
2023-02-24T12:29:23.243Z,5.16
2023-02-24T12:30:27.491Z,5.15
2023-02-24T12:31:31.749Z,5.16
2023-02-24T12:32:36.084Z,5.18
2023-02-24T12:33:40.026Z,5.17
2023-02-24T12:34:44.257Z,5.17
2023-02-24T12:35:48.424Z,5.15
2023-02-24T12:36:52.609Z,5.14
2023-02-24T12:37:56.818Z,5.15
2023-02-24T12:39:01.046Z,5.16
2023-02-24T12:40:05.228Z,5.17
2023-02-24T12:41:09.639Z,5.19
2023-02-24T12:42:13.666Z,5.22
2023-02-24T12:43:18.014Z,5.26
2023-02-24T12:44:22.067Z,5.31
2023-02-24T12:45:26.317Z,5.35
2023-02-24T12:46:30.549Z,5.39
2023-02-24T12:47:34.700Z,5.42
2023-02-24T12:48:38.866Z,5.43
2023-02-24T12:49:43.041Z,5.43
2023-02-24T12:51:01.271Z,5.44
2023-02-24T12:52:04.254Z,5.45
2023-02-24T12:53:08.297Z,5.45
2023-02-24T12:54:12.568Z,5.46
2023-02-24T12:55:16.783Z,5.46
2023-02-24T12:56:20.784Z,5.46
2023-02-24T12:57:25.108Z,5.46
2023-02-24T12:58:29.321Z,5.46
2023-02-24T12:59:33.493Z,5.46
2023-02-24T13:00:37.696Z,5.46
2023-02-24T13:01:42.007Z,5.48
2023-02-24T13:02:47.083Z,5.48
2023-02-24T13:03:50.892Z,5.48
2023-02-24T13:04:54.996Z,5.48
2023-02-24T13:05:59.224Z,5.47
2023-02-24T13:07:03.395Z,5.46
2023-02-24T13:08:07.667Z,5.46
2023-02-24T13:09:11.736Z,5.45
2023-02-24T13:10:15.869Z,5.44
2023-02-24T13:11:20.619Z,5.44
2023-02-24T13:12:24.236Z,5.45
2023-02-24T13:13:28.462Z,5.44
2023-02-24T13:14:32.697Z,5.45
2023-02-24T13:15:36.899Z,5.46
2023-02-24T13:16:41.085Z,5.46
2023-02-24T13:17:45.256Z,5.47
2023-02-24T13:18:49.449Z,5.48
2023-02-24T13:19:53.604Z,5.48
2023-02-24T13:20:57.925Z,5.48
2023-02-24T13:22:01.974Z,5.49
2023-02-24T13:23:06.147Z,5.49
2023-02-24T13:24:10.386Z,5.49
2023-02-24T13:25:14.609Z,5.49
2023-02-24T13:26:18.792Z,5.49
2023-02-24T13:27:23.008Z,5.49
2023-02-24T13:28:27.212Z,5.49
2023-02-24T13:29:31.397Z,5.51
2023-02-24T13:30:35.655Z,5.51
2023-02-24T13:31:39.885Z,5.51
2023-02-24T13:32:44.091Z,5.51
2023-02-24T13:33:48.154Z,5.50
2023-02-24T13:34:52.348Z,5.50
2023-02-24T13:35:57.478Z,5.50
2023-02-24T13:37:00.838Z,5.52
2023-02-24T13:38:05.030Z,5.51
2023-02-24T13:39:09.223Z,5.52
2023-02-24T13:40:13.370Z,5.52
2023-02-24T13:41:17.602Z,5.53
2023-02-24T13:42:21.714Z,5.55
2023-02-24T13:43:26.008Z,5.57
2023-02-24T13:44:30.100Z,5.59
2023-02-24T13:45:34.238Z,5.61
2023-02-24T13:46:38.469Z,5.62
2023-02-24T13:47:42.683Z,5.62
2023-02-24T13:48:46.792Z,5.63
2023-02-24T13:49:51.076Z,5.65
2023-02-24T13:50:55.217Z,5.66
2023-02-24T13:51:59.500Z,5.67
2023-02-24T13:53:03.629Z,5.66
2023-02-24T13:54:07.853Z,5.66
2023-02-24T13:55:12.066Z,5.66
2023-02-24T13:56:19.258Z,5.66
2023-02-24T13:57:22.682Z,5.67
2023-02-24T13:58:26.787Z,5.67
2023-02-24T13:59:30.996Z,5.69
2023-02-24T14:00:35.210Z,5.70
2023-02-24T14:01:39.552Z,5.71
2023-02-24T14:02:43.642Z,5.73
2023-02-24T14:03:47.867Z,5.75
2023-02-24T14:04:52.090Z,5.78
2023-02-24T14:05:56.344Z,5.84
2023-02-24T14:07:00.566Z,5.88
2023-02-24T14:08:04.759Z,5.92
2023-02-24T14:09:08.948Z,5.95
2023-02-24T14:10:13.349Z,5.97
2023-02-24T14:11:17.267Z,5.97
2023-02-24T14:12:21.391Z,5.96
2023-02-24T14:13:25.791Z,5.96
2023-02-24T14:14:29.932Z,5.93
2023-02-24T14:15:34.320Z,5.92
2023-02-24T14:16:38.239Z,5.91